KSEA

Seattle-Tacoma International Airport

Seattle, Washington, USA
KSEA 182320Z 1900/2006 10010KT P6SM -RA OVC050 FM190900 18014G20KT P6SM -RA BKN025 OVC040 FM191400 20012KT P6SM SCT025 OVC040
Issued Valid From Valid To
Jan-18 @ 23:20 UTC
(3 hours ago)
Jan-19 @ 00:00 UTC
(2 hours ago)
Jan-20 @ 06:00 UTC
(-1 days ago)
Jan-19 @ 00:00 to Jan-19 @ 09:00
KSEA 182320Z 1900/2006 10010KT P6SM -RA OVC050
Wind Visibility Clouds Conditions
100° at 10 knots Greater than 6 miles
  • Overcast at 5,000' AGL
  • Light Rain
From Jan-19 @ 09:00 to Jan-19 @ 14:00
FM190900 18014G20KT P6SM -RA BKN025 OVC040
Wind Visibility Clouds Conditions
180° at 14 knots
 Gusting to 20 knots
Greater than 6 miles
  • Broken at 2,500' AGL
  • Overcast at 4,000' AGL
  • Light Rain
From Jan-19 @ 14:00 to Jan-20 @ 06:00
FM191400 20012KT P6SM SCT025 OVC040
Wind Visibility Clouds
200° at 12 knots Greater than 6 miles
  • Scattered at 2,500' AGL
  • Overcast at 4,000' AGL
KSEA 182320Z 1900/2006 10010KT P6SM -RA OVC050 FM190900 18014G20KT P6SM -RA BKN025 OVC040 FM191400 20012KT P6SM SCT025 OVC040
Issued Jan-18 @ 23:20 UTC
(3 hours ago)
Valid From Jan-19 @ 00:00 UTC
(2 hours ago)
Valid To Jan-20 @ 06:00 UTC
(-1 days ago)
Jan-19 @ 00:00 - Jan-19 @ 09:00
Wind Visibility
100° at 10 knots Greater than 6 miles
Clouds
  • Overcast at 5,000' AGL
Conditions
  • Light Rain
From Jan-19 @ 09:00 - Jan-19 @ 14:00
Wind Visibility
180° at 14 knots
 Gusting to 20 knots
Greater than 6 miles
Clouds
  • Broken at 2,500' AGL
  • Overcast at 4,000' AGL
Conditions
  • Light Rain
From Jan-19 @ 14:00 - Jan-20 @ 06:00
Wind Visibility
200° at 12 knots Greater than 6 miles
Clouds
  • Scattered at 2,500' AGL
  • Overcast at 4,000' AGL